Time;durP1;ratioP1;P1;durP2;ratioP2;P2;SDS_P1;SDS_P2;PMS_P1;PMS_P2;Temp;Humidity;BMP_temperature;BMP_pressure;BME280_temperature;BME280_humidity;BME280_pressure;Samples;Min_cycle;Max_cycle;Signal;HPM_P1;HPM_P2
2022/10/15 00:02:10;;;;;;;51.92;35.10;;;12.60;99.90;;;;;;5061473;28;20454;-70
2022/10/15 00:04:35;;;;;;;55.05;34.17;;;12.60;99.90;;;;;;5064819;28;20052;-70
2022/10/15 00:07:01;;;;;;;46.45;32.80;;;12.60;99.90;;;;;;5061766;28;20044;-69
2022/10/15 00:09:27;;;;;;;50.55;33.97;;;12.60;99.90;;;;;;5068724;28;20119;-70
2022/10/15 00:11:53;;;;;;;50.28;33.42;;;12.70;99.90;;;;;;5069896;28;20045;-70
2022/10/15 00:14:19;;;;;;;49.72;33.33;;;12.60;99.90;;;;;;5068710;28;20387;-70
2022/10/15 00:16:45;;;;;;;47.63;32.20;;;12.70;99.90;;;;;;5068245;28;20049;-70
2022/10/15 00:19:11;;;;;;;55.25;34.38;;;12.70;99.90;;;;;;5069579;28;20063;-70
2022/10/15 00:21:37;;;;;;;55.28;35.33;;;12.60;99.90;;;;;;5069202;28;20048;-70
2022/10/15 00:24:03;;;;;;;52.95;35.30;;;12.60;99.90;;;;;;5070427;28;20080;-70
2022/10/15 00:26:30;;;;;;;57.17;35.42;;;12.60;99.90;;;;;;5051359;28;20048;-70
2022/10/15 00:28:58;;;;;;;51.40;33.78;;;12.60;99.90;;;;;;5067958;28;20060;-70
2022/10/15 00:31:26;;;;;;;62.25;38.38;;;12.60;99.90;;;;;;5068138;28;20453;-70
2022/10/15 00:33:55;;;;;;;60.15;36.42;;;12.60;99.90;;;;;;5068774;28;20444;-70
2022/10/15 00:36:23;;;;;;;53.70;35.10;;;12.60;99.90;;;;;;5068618;28;20448;-70
2022/10/15 00:38:50;;;;;;;52.30;34.95;;;12.60;99.90;;;;;;5069618;28;20464;-70
2022/10/15 00:41:29;;;;;;;58.53;35.40;;;12.60;99.90;;;;;;5069084;28;20481;-70
2022/10/15 00:43:57;;;;;;;51.03;34.42;;;12.60;99.90;;;;;;5065867;28;20056;-70
2022/10/15 00:46:41;;;;;;;47.60;33.85;;;12.60;99.90;;;;;;5083159;28;20054;-69
2022/10/15 00:49:19;;;;;;;48.20;33.63;;;12.60;99.90;;;;;;5089790;28;20048;-70
2022/10/15 00:51:54;;;;;;;52.38;34.28;;;12.60;99.90;;;;;;5070450;28;20128;-69
2022/10/15 00:54:21;;;;;;;57.40;35.20;;;12.70;99.90;;;;;;5070568;28;20467;-70
2022/10/15 00:56:49;;;;;;;52.92;34.38;;;12.60;99.90;;;;;;5068026;28;20079;-70
2022/10/15 00:59:16;;;;;;;50.03;32.95;;;12.60;99.90;;;;;;5057405;28;20413;-70
2022/10/15 01:01:42;;;;;;;52.70;33.40;;;12.70;99.90;;;;;;5059164;28;20044;-70
2022/10/15 01:04:11;;;;;;;52.13;34.33;;;12.70;99.90;;;;;;5048066;28;20052;-70
2022/10/15 01:06:38;;;;;;;54.45;35.80;;;12.60;99.90;;;;;;5065013;28;20041;-70
2022/10/15 01:09:05;;;;;;;50.22;34.38;;;12.60;99.90;;;;;;5069516;28;20052;-70
2022/10/15 01:11:42;;;;;;;56.45;35.17;;;12.70;99.90;;;;;;5068726;28;20040;-70
2022/10/15 01:14:07;;;;;;;49.42;34.00;;;12.70;99.90;;;;;;5066878;28;20048;-70
2022/10/15 01:16:53;;;;;;;54.20;35.70;;;12.70;99.90;;;;;;5067575;28;20098;-71
2022/10/15 01:20:07;;;;;;;53.33;35.13;;;12.70;99.90;;;;;;5066664;28;20060;-70
2022/10/15 01:22:41;;;;;;;49.72;33.70;;;12.60;99.90;;;;;;5057695;28;20099;-70
2022/10/15 01:25:55;;;;;;;56.13;36.03;;;12.60;99.90;;;;;;5062863;28;20508;-70
2022/10/15 01:28:38;;;;;;;55.55;35.92;;;12.60;99.90;;;;;;5057989;28;20045;-70
2022/10/15 01:31:39;;;;;;;51.10;35.10;;;12.60;99.90;;;;;;5009913;28;20045;-70
2022/10/15 01:34:20;;;;;;;59.40;38.60;;;12.60;99.90;;;;;;5044751;28;20063;-70
2022/10/15 01:37:04;;;;;;;52.72;35.08;;;12.60;99.90;;;;;;5047000;28;20071;-71
2022/10/15 01:40:09;;;;;;;53.92;35.38;;;12.60;99.90;;;;;;5048535;28;20135;-70
2022/10/15 01:42:57;;;;;;;47.17;34.67;;;12.60;99.90;;;;;;5044616;28;20045;-71
2022/10/15 01:45:33;;;;;;;43.28;33.63;;;12.60;99.90;;;;;;5073758;28;20108;-70
2022/10/15 01:48:03;;;;;;;49.72;35.55;;;12.60;99.90;;;;;;5064405;28;20053;-70
2022/10/15 01:50:32;;;;;;;51.72;35.08;;;12.60;99.90;;;;;;5065765;28;20045;-70
2022/10/15 01:52:59;;;;;;;56.65;35.50;;;12.60;99.90;;;;;;5061492;28;20105;-70
2022/10/15 01:55:26;;;;;;;53.00;35.95;;;12.60;99.90;;;;;;5064114;28;20052;-70
2022/10/15 01:57:56;;;;;;;50.63;35.00;;;12.60;99.90;;;;;;5063341;28;20045;-71
2022/10/15 02:00:22;;;;;;;50.17;34.03;;;12.60;99.90;;;;;;5067845;28;20048;-70
2022/10/15 02:02:48;;;;;;;51.60;35.42;;;12.60;99.90;;;;;;5066752;28;20113;-70
2022/10/15 02:05:22;;;;;;;59.80;36.47;;;12.60;99.90;;;;;;5066231;28;20039;-70
2022/10/15 02:08:09;;;;;;;53.13;33.55;;;12.60;99.90;;;;;;5064815;28;20414;-69
2022/10/15 02:10:59;;;;;;;51.25;33.28;;;12.50;99.90;;;;;;5055914;28;20049;-70
2022/10/15 02:14:07;;;;;;;51.28;34.03;;;12.50;99.90;;;;;;5048205;28;20053;-70
2022/10/15 02:17:04;;;;;;;53.08;34.13;;;12.50;99.90;;;;;;5044493;28;20052;-70
2022/10/15 02:19:53;;;;;;;47.05;31.92;;;12.50;99.90;;;;;;5065389;28;20123;-70
2022/10/15 02:22:19;;;;;;;49.45;32.95;;;12.50;99.90;;;;;;5061459;28;20175;-70
2022/10/15 02:24:54;;;;;;;54.13;34.45;;;12.50;99.90;;;;;;5047359;28;20525;-70
2022/10/15 02:27:25;;;;;;;56.50;34.65;;;12.50;99.90;;;;;;5047643;28;20060;-70
2022/10/15 02:29:51;;;;;;;;;;;12.50;99.90;;;;;;5064519;28;20045;-70
2022/10/15 02:32:20;;;;;;;49.40;33.50;;;12.50;99.90;;;;;;5067658;28;19946;-70
2022/10/15 02:34:47;;;;;;;58.00;32.95;;;12.50;99.90;;;;;;5068591;28;20493;-70
2022/10/15 02:37:14;;;;;;;50.20;32.88;;;12.50;99.90;;;;;;5068312;28;20048;-70
2022/10/15 02:39:39;;;;;;;54.60;33.95;;;12.50;99.90;;;;;;5066551;28;20041;-70
2022/10/15 02:42:05;;;;;;;53.15;33.53;;;12.50;99.90;;;;;;5067067;28;20070;-70
2022/10/15 02:44:31;;;;;;;45.15;31.52;;;12.50;99.90;;;;;;5066810;28;20040;-70
2022/10/15 02:46:58;;;;;;;49.95;31.40;;;12.50;99.90;;;;;;5067093;28;20048;-70
2022/10/15 02:49:24;;;;;;;44.97;30.30;;;12.40;99.90;;;;;;5066183;28;20051;-70
2022/10/15 02:51:50;;;;;;;49.80;30.88;;;12.40;99.90;;;;;;5048461;28;20417;-70
2022/10/15 02:54:15;;;;;;;48.90;31.10;;;12.40;99.90;;;;;;5066050;28;20049;-70
2022/10/15 02:56:41;;;;;;;53.83;33.42;;;12.40;99.90;;;;;;5049146;28;20662;-70
2022/10/15 02:59:07;;;;;;;57.80;31.67;;;12.40;99.90;;;;;;5052129;28;20426;-70
2022/10/15 03:01:33;;;;;;;56.67;31.02;;;12.40;99.90;;;;;;5051639;28;20045;-70
2022/10/15 03:04:00;;;;;;;43.97;29.90;;;12.40;99.90;;;;;;5068833;28;20119;-70
2022/10/15 03:06:26;;;;;;;50.35;31.10;;;12.40;99.90;;;;;;5070652;28;20458;-70
2022/10/15 03:08:51;;;;;;;49.35;30.98;;;12.50;99.90;;;;;;5069831;28;20056;-70
2022/10/15 03:11:17;;;;;;;49.08;30.88;;;12.40;99.90;;;;;;5071318;28;20051;-70
2022/10/15 03:13:43;;;;;;;50.50;31.83;;;12.40;99.90;;;;;;5070741;28;20080;-70
2022/10/15 03:16:10;;;;;;;56.20;31.27;;;12.40;99.90;;;;;;5070781;28;20052;-70
2022/10/15 03:18:36;;;;;;;50.88;31.88;;;12.40;99.90;;;;;;5067617;28;20036;-70
2022/10/15 03:21:02;;;;;;;49.00;30.05;;;12.40;99.90;;;;;;5067675;28;20563;-70
2022/10/15 03:23:28;;;;;;;52.60;30.70;;;12.40;99.90;;;;;;5071359;28;20397;-70
2022/10/15 03:25:54;;;;;;;49.92;31.45;;;12.60;99.90;;;;;;5069738;28;20134;-70
2022/10/15 03:28:20;;;;;;;45.42;29.50;;;12.40;99.90;;;;;;5069160;28;20378;-70
2022/10/15 03:30:46;;;;;;;51.25;31.70;;;12.40;99.90;;;;;;5069357;28;20048;-70
2022/10/15 03:33:12;;;;;;;50.08;32.58;;;12.40;99.90;;;;;;5067626;28;20041;-70
2022/10/15 03:35:38;;;;;;;49.38;31.63;;;12.40;99.90;;;;;;5069366;28;20044;-70
2022/10/15 03:38:05;;;;;;;53.38;31.95;;;12.40;99.90;;;;;;5071047;28;20488;-69
2022/10/15 03:40:32;;;;;;;50.25;30.70;;;12.40;99.90;;;;;;5071033;28;20114;-70
2022/10/15 03:42:58;;;;;;;52.00;31.70;;;12.40;99.90;;;;;;5068887;28;20548;-70
2022/10/15 03:45:24;;;;;;;50.85;31.65;;;12.30;99.90;;;;;;5070241;28;20052;-70
2022/10/15 03:47:50;;;;;;;56.47;31.55;;;12.30;99.90;;;;;;5070315;28;20048;-70
2022/10/15 03:50:16;;;;;;;52.30;31.83;;;12.30;99.90;;;;;;5069372;28;20044;-68
2022/10/15 03:52:42;;;;;;;49.83;31.15;;;12.30;99.90;;;;;;5068628;28;20045;-69
2022/10/15 03:55:11;;;;;;;55.55;35.35;;;12.30;99.90;;;;;;5071115;28;20052;-69
2022/10/15 03:57:37;;;;;;;52.92;32.72;;;12.30;99.90;;;;;;5068787;28;20048;-70
2022/10/15 04:00:05;;;;;;;53.58;31.77;;;12.30;99.90;;;;;;5068413;28;20048;-70
2022/10/15 04:02:32;;;;;;;57.08;33.95;;;12.30;99.90;;;;;;5069863;28;20048;-69
2022/10/15 04:04:57;;;;;;;54.40;32.10;;;12.30;99.90;;;;;;5061006;28;20413;-69
2022/10/15 04:07:23;;;;;;;56.55;33.13;;;12.30;99.90;;;;;;5068379;28;20044;-69
2022/10/15 04:09:49;;;;;;;50.67;31.65;;;12.30;99.90;;;;;;5069110;28;20080;-69
2022/10/15 04:12:15;;;;;;;59.22;33.95;;;12.30;99.90;;;;;;5069858;28;20476;-70
2022/10/15 04:14:42;;;;;;;49.28;30.77;;;12.30;99.90;;;;;;5069762;28;20401;-70
2022/10/15 04:17:07;;;;;;;51.97;31.73;;;12.30;99.90;;;;;;5070107;28;20041;-70
2022/10/15 04:19:33;;;;;;;56.95;31.85;;;12.30;99.90;;;;;;5069228;28;20102;-70
2022/10/15 04:21:59;;;;;;;51.92;31.85;;;12.30;99.90;;;;;;5051644;28;20112;-70
2022/10/15 04:24:25;;;;;;;60.08;33.13;;;12.30;99.90;;;;;;5050465;28;20126;-70
2022/10/15 04:26:51;;;;;;;55.13;33.65;;;12.30;99.90;;;;;;5064989;28;20053;-71
2022/10/15 04:29:17;;;;;;;52.45;32.90;;;12.30;99.90;;;;;;5050890;28;20102;-71
2022/10/15 04:31:43;;;;;;;54.72;32.63;;;12.30;99.90;;;;;;5088147;28;20325;-71
2022/10/15 04:34:10;;;;;;;47.08;30.48;;;12.30;99.90;;;;;;5070433;28;20052;-71
2022/10/15 04:36:36;;;;;;;58.22;33.70;;;12.30;99.90;;;;;;5068777;28;20694;-71
2022/10/15 04:39:03;;;;;;;62.40;34.10;;;12.30;99.90;;;;;;5069021;28;20130;-70
2022/10/15 04:41:29;;;;;;;56.88;33.35;;;12.40;99.90;;;;;;5049200;28;20072;-71
2022/10/15 04:43:56;;;;;;;51.00;31.98;;;12.30;99.90;;;;;;5048367;28;20136;-71
2022/10/15 04:46:22;;;;;;;55.80;32.88;;;12.40;99.90;;;;;;5036857;28;20070;-71
2022/10/15 04:48:48;;;;;;;52.72;32.53;;;12.30;99.90;;;;;;5067261;28;20036;-71
2022/10/15 04:51:17;;;;;;;54.15;33.92;;;12.30;99.90;;;;;;5068856;28;20722;-71
2022/10/15 04:53:44;;;;;;;57.13;32.33;;;12.30;99.90;;;;;;5068140;28;20037;-71
2022/10/15 04:56:16;;;;;;;58.97;33.25;;;12.30;99.90;;;;;;5069341;28;20052;-71
2022/10/15 04:58:43;;;;;;;62.75;32.45;;;12.60;99.90;;;;;;5051188;28;20044;-71
2022/10/15 05:01:12;;;;;;;55.42;32.67;;;12.30;99.90;;;;;;5065975;28;20048;-71
2022/10/15 05:03:39;;;;;;;55.85;33.30;;;12.30;99.90;;;;;;5068419;28;20051;-71
2022/10/15 05:06:11;;;;;;;55.53;33.17;;;12.50;99.90;;;;;;5067814;28;20040;-71
2022/10/15 05:08:37;;;;;;;58.63;32.83;;;12.30;99.90;;;;;;5068773;28;20048;-71
2022/10/15 05:11:08;;;;;;;59.15;33.92;;;12.30;99.90;;;;;;5068343;28;20409;-70
2022/10/15 05:13:34;;;;;;;57.22;34.20;;;12.30;99.90;;;;;;5048967;28;20044;-71
2022/10/15 05:16:15;;;;;;;54.38;33.08;;;12.30;99.90;;;;;;5089587;28;20143;-71
2022/10/15 05:18:42;;;;;;;54.90;33.15;;;12.30;99.90;;;;;;5063740;28;20036;-71
2022/10/15 05:21:09;;;;;;;58.67;35.33;;;12.30;99.90;;;;;;5068167;28;20123;-71
2022/10/15 05:23:36;;;;;;;64.57;35.80;;;12.50;99.90;;;;;;5066808;28;20512;-71
2022/10/15 05:26:05;;;;;;;60.13;35.35;;;12.20;99.90;;;;;;5050547;28;20054;-70
2022/10/15 05:28:30;;;;;;;62.80;34.92;;;12.20;99.90;;;;;;5068868;28;20410;-71
2022/10/15 05:31:09;;;;;;;63.00;36.40;;;12.20;99.90;;;;;;5066764;28;20051;-70
2022/10/15 05:33:35;;;;;;;65.47;37.22;;;12.20;99.90;;;;;;5066935;28;20048;-71
2022/10/15 05:36:28;;;;;;;55.88;35.10;;;12.20;99.90;;;;;;5050907;28;20047;-70
2022/10/15 05:38:56;;;;;;;60.85;37.42;;;12.20;99.90;;;;;;5063597;28;20056;-70
2022/10/15 05:41:22;;;;;;;72.90;41.03;;;12.20;99.90;;;;;;5051072;28;20044;-71
2022/10/15 05:43:49;;;;;;;65.15;37.10;;;12.20;99.90;;;;;;5066841;28;20059;-70
2022/10/15 05:46:16;;;;;;;64.78;38.85;;;12.20;99.90;;;;;;5067332;28;20052;-70
2022/10/15 05:48:42;;;;;;;61.33;37.92;;;12.20;99.90;;;;;;5062817;28;20080;-71
2022/10/15 05:51:11;;;;;;;73.00;41.08;;;12.10;99.90;;;;;;5050558;28;20080;-70
2022/10/15 05:53:38;;;;;;;68.55;39.40;;;12.10;99.90;;;;;;5067615;28;20393;-70
2022/10/15 05:56:04;;;;;;;67.88;39.28;;;12.10;99.90;;;;;;5063934;28;20044;-71
2022/10/15 05:58:33;;;;;;;73.95;43.80;;;12.20;99.90;;;;;;5058186;28;20040;-70
2022/10/15 06:01:00;;;;;;;70.30;41.33;;;12.10;99.90;;;;;;5058554;28;20131;-70
2022/10/15 06:03:27;;;;;;;72.47;41.95;;;12.20;99.90;;;;;;5064219;28;20667;-70
2022/10/15 06:05:52;;;;;;;81.35;43.53;;;12.10;99.90;;;;;;5048419;28;20056;-70
2022/10/15 06:08:19;;;;;;;81.00;44.85;;;12.10;99.90;;;;;;5064210;28;20409;-70
2022/10/15 06:10:45;;;;;;;76.30;42.70;;;12.10;99.90;;;;;;5067186;28;20469;-70
2022/10/15 06:13:11;;;;;;;72.35;44.17;;;12.10;99.90;;;;;;5068524;28;20135;-70
2022/10/15 06:15:45;;;;;;;79.22;43.40;;;12.10;99.90;;;;;;5051049;28;20500;-70
2022/10/15 06:18:14;;;;;;;79.85;43.92;;;12.10;99.90;;;;;;5059269;28;20097;-70
2022/10/15 06:20:41;;;;;;;87.22;44.75;;;12.20;99.90;;;;;;5062716;28;20062;-71
2022/10/15 06:23:09;;;;;;;88.13;45.80;;;12.10;99.90;;;;;;5063735;28;20448;-70
2022/10/15 06:25:34;;;;;;;79.45;45.05;;;12.10;99.90;;;;;;5063412;28;20047;-71
2022/10/15 06:28:05;;;;;;;85.13;46.35;;;12.10;99.90;;;;;;5062509;28;20048;-71
2022/10/15 06:30:30;;;;;;;89.60;47.45;;;12.10;99.90;;;;;;5064298;28;20101;-70
2022/10/15 06:32:56;;;;;;;91.45;50.30;;;12.10;99.90;;;;;;5065490;28;20044;-70
2022/10/15 06:35:23;;;;;;;89.75;48.85;;;12.10;99.90;;;;;;5064859;28;20468;-70
2022/10/15 06:37:49;;;;;;;89.45;48.97;;;12.10;99.90;;;;;;5062437;28;20052;-71
2022/10/15 06:40:15;;;;;;;91.20;47.15;;;12.10;99.90;;;;;;5062977;28;20036;-70
2022/10/15 06:42:41;;;;;;;89.22;46.58;;;12.10;99.90;;;;;;5064099;28;20054;-70
2022/10/15 06:45:11;;;;;;;98.63;49.10;;;12.10;99.90;;;;;;5062524;28;20080;-71
2022/10/15 06:47:40;;;;;;;90.43;48.65;;;12.10;99.90;;;;;;5062114;28;20047;-70
2022/10/15 06:50:06;;;;;;;93.28;47.72;;;12.10;99.90;;;;;;5062474;28;20076;-70
2022/10/15 06:52:32;;;;;;;83.85;46.22;;;12.20;99.90;;;;;;5066769;28;20072;-71
2022/10/15 06:54:59;;;;;;;88.53;47.20;;;12.10;99.90;;;;;;5062301;28;20553;-70
2022/10/15 06:57:27;;;;;;;80.88;45.63;;;12.20;99.90;;;;;;5063676;28;20493;-70
2022/10/15 06:59:52;;;;;;;84.00;45.95;;;12.20;99.90;;;;;;5061667;28;20040;-70
2022/10/15 07:02:18;;;;;;;89.60;46.38;;;12.10;99.90;;;;;;5064665;28;20044;-70
2022/10/15 07:04:47;;;;;;;92.55;48.53;;;12.20;99.90;;;;;;5066085;28;20120;-70
2022/10/15 07:07:13;;;;;;;84.88;46.65;;;12.20;99.90;;;;;;5062673;28;20397;-70
2022/10/15 07:09:39;;;;;;;85.57;46.88;;;12.10;99.90;;;;;;5062596;28;20056;-71
2022/10/15 07:12:05;;;;;;;90.78;46.90;;;12.20;99.90;;;;;;5062251;28;20044;-70
2022/10/15 07:14:31;;;;;;;88.13;48.17;;;12.10;99.90;;;;;;5063837;28;20507;-71
2022/10/15 07:16:58;;;;;;;88.75;47.25;;;12.20;99.90;;;;;;5060706;28;20430;-70
2022/10/15 07:19:24;;;;;;;95.97;48.75;;;12.20;99.90;;;;;;5060888;28;20605;-70
2022/10/15 07:21:50;;;;;;;85.50;47.63;;;12.20;99.90;;;;;;5059412;28;20045;-70
2022/10/15 07:24:15;;;;;;;89.03;47.08;;;12.20;99.90;;;;;;5063782;28;20036;-71
2022/10/15 07:26:41;;;;;;;93.43;50.53;;;12.20;99.90;;;;;;5066398;28;20056;-71
2022/10/15 07:29:07;;;;;;;90.95;48.33;;;12.20;99.90;;;;;;5061053;28;20102;-70
2022/10/15 07:31:33;;;;;;;92.72;46.80;;;12.20;99.90;;;;;;5061370;28;20517;-70
2022/10/15 07:33:59;;;;;;;91.15;47.65;;;12.20;99.90;;;;;;5061276;28;20076;-70
2022/10/15 07:36:25;;;;;;;92.00;48.67;;;12.20;99.90;;;;;;5060647;28;20476;-70
2022/10/15 07:38:51;;;;;;;88.78;48.03;;;12.20;99.90;;;;;;5065275;28;20127;-70
2022/10/15 07:41:17;;;;;;;94.72;50.10;;;12.20;99.90;;;;;;5066690;28;20131;-70
2022/10/15 07:43:43;;;;;;;89.68;47.47;;;12.30;99.90;;;;;;5065480;28;20045;-70
2022/10/15 07:46:09;;;;;;;99.13;49.75;;;12.30;99.90;;;;;;5067205;28;20041;-70
2022/10/15 07:48:35;;;;;;;99.93;49.15;;;12.30;99.90;;;;;;5062675;28;20044;-70
2022/10/15 07:51:03;;;;;;;82.20;46.55;;;12.30;99.90;;;;;;5064974;28;20036;-69
2022/10/15 07:53:30;;;;;;;91.50;48.15;;;12.30;99.90;;;;;;5065770;28;20048;-70
2022/10/15 07:56:00;;;;;;;91.63;49.30;;;12.40;99.90;;;;;;5065842;28;20068;-70
2022/10/15 07:58:29;;;;;;;86.65;48.30;;;12.40;99.90;;;;;;5063192;28;20098;-70
2022/10/15 08:00:58;;;;;;;87.57;48.33;;;12.50;99.90;;;;;;5066304;28;20523;-70
2022/10/15 08:03:23;;;;;;;80.93;45.03;;;12.50;99.90;;;;;;5069357;28;20111;-69
2022/10/15 08:05:52;;;;;;;83.03;45.67;;;12.50;99.90;;;;;;5069102;28;20545;-70
2022/10/15 08:08:18;;;;;;;82.80;46.28;;;12.50;99.90;;;;;;5064445;28;20556;-70
2022/10/15 08:10:45;;;;;;;84.00;45.08;;;12.50;99.90;;;;;;5037320;28;20045;-70
2022/10/15 08:13:11;;;;;;;88.70;48.22;;;12.60;99.90;;;;;;5054838;28;20100;-70
2022/10/15 08:15:40;;;;;;;88.40;47.17;;;12.60;99.90;;;;;;5059282;28;20474;-70
2022/10/15 08:18:07;;;;;;;88.07;47.28;;;12.60;99.90;;;;;;5062727;28;20036;-70
2022/10/15 08:20:32;;;;;;;85.10;44.70;;;12.60;99.90;;;;;;5067921;28;20048;-70
2022/10/15 08:22:58;;;;;;;87.47;46.83;;;12.70;99.90;;;;;;5062429;28;20059;-70
2022/10/15 08:25:24;;;;;;;96.93;48.78;;;12.70;99.90;;;;;;5066604;28;20135;-70
2022/10/15 08:27:52;;;;;;;85.72;46.28;;;12.70;99.90;;;;;;5061318;28;20058;-70
2022/10/15 08:30:18;;;;;;;92.50;49.58;;;12.80;99.90;;;;;;5047858;28;20036;-70
2022/10/15 08:32:44;;;;;;;77.25;44.15;;;12.80;99.90;;;;;;5058913;28;20506;-70
2022/10/15 08:35:09;;;;;;;83.30;44.83;;;12.80;99.90;;;;;;5061001;28;20041;-70
2022/10/15 08:37:35;;;;;;;88.20;46.97;;;12.80;99.90;;;;;;5062159;28;20105;-70
2022/10/15 08:40:02;;;;;;;90.32;46.97;;;12.80;99.90;;;;;;5058700;28;20104;-69
2022/10/15 08:42:40;;;;;;;88.45;45.50;;;12.80;99.90;;;;;;5053791;28;20102;-69
2022/10/15 08:45:13;;;;;;;91.55;47.80;;;12.90;99.90;;;;;;5049099;28;20053;-71
2022/10/15 08:47:52;;;;;;;78.90;44.00;;;12.90;99.90;;;;;;5062360;28;20382;-70
2022/10/15 08:50:49;;;;;;;86.47;46.47;;;12.90;99.90;;;;;;5052390;28;20051;-70
2022/10/15 08:53:19;;;;;;;78.03;43.58;;;12.90;99.90;;;;;;5051611;28;20131;-69
2022/10/15 08:55:49;;;;;;;79.30;44.78;;;12.90;99.90;;;;;;5052635;28;20076;-69
2022/10/15 08:58:29;;;;;;;83.07;44.65;;;12.90;99.90;;;;;;5050553;28;20099;-69
2022/10/15 09:01:10;;;;;;;81.25;43.85;;;12.90;99.90;;;;;;5053507;28;20052;-70
2022/10/15 09:03:50;;;;;;;80.50;44.20;;;12.90;99.90;;;;;;5048955;28;20049;-69
2022/10/15 09:06:32;;;;;;;85.60;44.05;;;13.00;99.90;;;;;;5064382;28;20583;-70
2022/10/15 09:09:06;;;;;;;77.00;43.42;;;13.00;99.90;;;;;;5057357;28;20117;-69
2022/10/15 09:11:43;;;;;;;79.53;42.45;;;13.00;99.90;;;;;;5051647;28;20060;-70
2022/10/15 09:14:17;;;;;;;75.90;43.15;;;13.00;99.90;;;;;;5054251;28;20059;-69
2022/10/15 09:16:48;;;;;;;71.80;40.22;;;13.00;99.90;;;;;;5056218;28;20085;-69
2022/10/15 09:19:20;;;;;;;67.78;37.58;;;13.00;99.90;;;;;;5056471;28;20123;-70
2022/10/15 09:21:48;;;;;;;70.68;39.35;;;13.00;99.90;;;;;;5059383;28;20466;-70
2022/10/15 09:24:25;;;;;;;67.03;38.00;;;13.00;99.90;;;;;;5057962;28;20045;-69
2022/10/15 09:27:08;;;;;;;71.93;38.90;;;13.00;99.90;;;;;;5081557;28;20060;-69
2022/10/15 09:29:48;;;;;;;66.72;38.13;;;13.00;99.90;;;;;;5050474;28;20049;-70
2022/10/15 09:32:35;;;;;;;69.22;37.25;;;13.00;99.90;;;;;;5052996;28;20608;-70
2022/10/15 09:35:16;;;;;;;67.38;35.85;;;13.00;99.90;;;;;;5062101;28;20075;-70
2022/10/15 09:38:02;;;;;;;62.20;34.07;;;13.00;99.90;;;;;;5057755;28;20458;-70
2022/10/15 09:40:55;;;;;;;56.88;31.60;;;13.00;99.90;;;;;;5062548;28;20047;-70
2022/10/15 09:43:29;;;;;;;59.15;33.75;;;13.00;99.90;;;;;;5085553;28;20044;-70
2022/10/15 09:45:55;;;;;;;54.33;32.33;;;13.00;99.90;;;;;;5060298;28;20068;-71
2022/10/15 09:48:26;;;;;;;58.63;32.17;;;13.00;99.90;;;;;;5059503;28;20059;-69
2022/10/15 09:51:01;;;;;;;60.55;33.72;;;13.00;99.90;;;;;;5057773;28;20119;-70
2022/10/15 09:53:53;;;;;;;59.38;31.83;;;13.00;99.90;;;;;;5087463;28;20091;-69
2022/10/15 09:56:23;;;;;;;57.22;30.90;;;13.00;99.90;;;;;;5059245;28;20040;-70
2022/10/15 09:58:54;;;;;;;55.40;29.85;;;13.00;99.90;;;;;;5060397;28;20048;-69
2022/10/15 10:01:21;;;;;;;;;;;13.00;99.90;;;;;;5060475;28;20051;-69
2022/10/15 10:03:53;;;;;;;53.97;29.42;;;12.90;99.90;;;;;;5062889;28;20356;-69
2022/10/15 10:06:19;;;;;;;54.75;29.80;;;13.00;99.90;;;;;;5062505;28;20386;-70
2022/10/15 10:08:59;;;;;;;50.22;27.90;;;12.90;99.90;;;;;;5064013;28;20036;-69
2022/10/15 10:11:44;;;;;;;53.80;29.10;;;13.00;99.90;;;;;;5059825;28;20043;-69
2022/10/15 10:14:39;;;;;;;57.70;30.65;;;13.00;99.90;;;;;;5058410;28;20131;-70
2022/10/15 10:17:18;;;;;;;51.22;28.45;;;13.00;99.90;;;;;;5060296;28;20048;-70
2022/10/15 10:20:01;;;;;;;57.50;30.25;;;13.00;99.90;;;;;;5088145;28;20047;-69
2022/10/15 10:22:27;;;;;;;59.65;31.67;;;13.00;99.90;;;;;;5048588;28;20056;-70
2022/10/15 10:24:52;;;;;;;56.20;30.42;;;13.10;99.90;;;;;;5060202;28;20040;-70
2022/10/15 10:27:24;;;;;;;57.97;31.30;;;13.10;99.90;;;;;;5059523;28;20060;-71
2022/10/15 10:29:58;;;;;;;59.53;32.28;;;13.10;99.90;;;;;;5061410;28;20041;-70
2022/10/15 10:32:32;;;;;;;54.92;29.60;;;13.10;99.90;;;;;;5040279;28;20346;-70
2022/10/15 10:35:01;;;;;;;51.75;29.30;;;13.20;99.90;;;;;;5058848;28;20128;-70
2022/10/15 10:37:28;;;;;;;49.08;29.50;;;13.20;99.90;;;;;;5058998;28;20055;-69
2022/10/15 10:39:59;;;;;;;50.05;28.73;;;13.30;99.90;;;;;;5062717;28;20036;-71
2022/10/15 10:42:37;;;;;;;51.60;29.30;;;13.30;99.90;;;;;;5046200;28;20040;-70
2022/10/15 10:45:21;;;;;;;46.83;26.83;;;13.30;99.90;;;;;;5061847;28;21321;-70
2022/10/15 10:47:47;;;;;;;45.13;25.65;;;13.40;99.90;;;;;;5058198;28;20275;-69
2022/10/15 10:50:29;;;;;;;42.17;24.85;;;13.40;99.90;;;;;;5060449;28;20055;-69
2022/10/15 10:52:56;;;;;;;44.00;25.17;;;13.50;99.90;;;;;;5071145;28;20182;-70
2022/10/15 10:55:28;;;;;;;41.20;24.42;;;13.50;99.90;;;;;;5044480;28;20485;-69
2022/10/15 10:58:01;;;;;;;39.45;22.02;;;13.50;99.90;;;;;;5061268;28;20047;-70
2022/10/15 11:00:42;;;;;;;37.90;22.55;;;13.60;99.90;;;;;;5050712;28;20533;-70
2022/10/15 11:03:37;;;;;;;35.75;21.42;;;13.60;99.90;;;;;;5041899;28;20044;-70
2022/10/15 11:06:40;;;;;;;33.38;20.42;;;13.60;99.90;;;;;;5056683;28;20052;-70
2022/10/15 11:09:46;;;;;;;34.50;20.75;;;13.60;99.90;;;;;;5049239;28;20106;-69
2022/10/15 11:12:15;;;;;;;32.78;19.17;;;13.70;99.90;;;;;;5034546;28;20547;-70
2022/10/15 11:15:17;;;;;;;30.23;19.45;;;13.70;99.90;;;;;;5078230;28;20047;-69
2022/10/15 11:18:08;;;;;;;29.13;18.98;;;13.70;99.90;;;;;;5090504;28;20064;-70
2022/10/15 11:20:58;;;;;;;27.48;17.67;;;13.80;99.90;;;;;;5059075;28;20044;-71
2022/10/15 11:23:45;;;;;;;28.90;17.53;;;13.80;99.90;;;;;;5059270;28;20044;-71
2022/10/15 11:26:54;;;;;;;28.45;17.70;;;13.90;99.90;;;;;;5061605;28;20508;-70
2022/10/15 11:29:39;;;;;;;28.67;18.40;;;14.00;99.90;;;;;;5056263;28;20098;-70
2022/10/15 11:32:23;;;;;;;25.63;16.45;;;14.00;99.90;;;;;;5044786;28;20156;-70
2022/10/15 11:35:03;;;;;;;26.40;16.98;;;14.00;99.90;;;;;;5061656;28;20602;-70
2022/10/15 11:37:59;;;;;;;25.57;16.03;;;14.10;99.90;;;;;;5081511;27;20131;-70
2022/10/15 11:40:39;;;;;;;22.90;16.30;;;14.10;99.90;;;;;;5058829;28;20044;-70
2022/10/15 11:43:20;;;;;;;23.25;15.45;;;14.20;99.90;;;;;;5064955;28;20036;-69
2022/10/15 11:46:14;;;;;;;24.63;16.13;;;14.20;99.90;;;;;;5065820;28;20048;-69
2022/10/15 11:48:44;;;;;;;22.60;15.02;;;14.30;99.90;;;;;;5060729;28;20202;-69
2022/10/15 11:51:19;;;;;;;21.08;15.07;;;14.30;99.90;;;;;;5055638;28;20055;-70
2022/10/15 11:54:01;;;;;;;22.42;15.13;;;14.40;99.90;;;;;;5054899;28;20119;-70
2022/10/15 11:56:40;;;;;;;21.20;14.60;;;14.60;99.90;;;;;;5060084;28;20045;-70
2022/10/15 11:59:08;;;;;;;22.83;15.63;;;14.40;99.90;;;;;;5052061;28;20504;-70
2022/10/15 12:01:51;;;;;;;21.98;14.95;;;14.50;99.90;;;;;;5051671;28;20043;-69
2022/10/15 12:04:26;;;;;;;25.00;15.90;;;14.50;99.90;;;;;;5053877;28;20051;-69
2022/10/15 12:06:55;;;;;;;20.60;14.88;;;14.50;99.90;;;;;;5049130;28;20064;-69
2022/10/15 12:09:35;;;;;;;23.15;15.32;;;14.60;99.90;;;;;;5062855;28;20463;-70
2022/10/15 12:12:12;;;;;;;23.60;17.30;;;14.60;99.90;;;;;;5058711;28;20053;-70
2022/10/15 12:15:12;;;;;;;23.77;16.90;;;14.60;99.90;;;;;;5054854;28;20040;-69
2022/10/15 12:17:57;;;;;;;25.17;15.70;;;14.60;99.90;;;;;;5045448;28;20048;-70
2022/10/15 12:20:26;;;;;;;22.58;15.73;;;14.60;99.90;;;;;;5043981;28;20122;-70
2022/10/15 12:22:53;;;;;;;22.63;16.00;;;14.50;99.90;;;;;;5049255;28;20052;-70
2022/10/15 12:25:35;;;;;;;23.70;16.77;;;14.60;99.90;;;;;;5062663;28;20048;-70
2022/10/15 12:28:00;;;;;;;;;;;14.60;99.90;;;;;;5048115;28;20082;-69
2022/10/15 12:30:36;;;;;;;24.20;15.82;;;14.60;99.90;;;;;;5064742;28;19925;-70
2022/10/15 12:33:19;;;;;;;23.60;16.08;;;14.60;99.90;;;;;;5044643;28;20052;-69
2022/10/15 12:35:56;;;;;;;23.15;15.50;;;14.60;99.90;;;;;;5040746;28;20576;-70
2022/10/15 12:38:33;;;;;;;23.75;15.25;;;14.60;99.90;;;;;;5061930;28;20087;-69
2022/10/15 12:41:05;;;;;;;21.40;14.95;;;14.60;99.90;;;;;;5062082;28;20048;-70
2022/10/15 12:43:34;;;;;;;24.05;15.13;;;14.60;99.90;;;;;;5047761;28;20719;-70
2022/10/15 12:46:02;;;;;;;21.50;15.40;;;14.60;99.90;;;;;;5065798;28;20040;-69
2022/10/15 12:48:38;;;;;;;21.90;15.18;;;14.60;99.90;;;;;;5064059;28;20564;-70
2022/10/15 12:51:22;;;;;;;23.58;15.27;;;14.60;99.90;;;;;;5063970;28;20135;-69
2022/10/15 12:53:50;;;;;;;20.83;15.25;;;14.60;99.90;;;;;;5065319;28;20094;-69